Ride Results

Tom Quilty Gold Cup (11-06-1988)
Ride distance: 160.0 km

Outcomes - Tom Quilty Gold Cup (11-06-1988)
Division No. of Entries Retired / DNE Completed Withdrawn Ineligible V/O Percentage Completed
HW 30 - 16 5 - 9 53.33%
MW 97 - 55 11 - 31 56.70%
LW 32 - 22 1 - 9 68.75%
JN 15 - 7 - - 8 46.67%
Totals 174 - 100 17 - 57 57.47%
Results - Tom Quilty Gold Cup (11-06-1988)
No. Rider Horse Place Time Leg Speeds Total
Km/Hr
H/R bpm
Heavyweight
47 Roy Counsell Glenallan Shieda 1 12:31:06 12.1, 13.9, 9.8, 17.3 12.78 37, 39, 44, 47, 47 (Avg:44)
58 Ron Malone Tarkhim Shar Kunama 2 13:01:06 11.8, 12.4, 9.6, 17.3 12.29 40, 40, 48, 58, 51 (Avg:49)
16 Russ Mcdonald Cayuse Hiawatha Jet 3 13:24:18 12.8, 12.0, 9.4, 14.5 11.94 27, 39, 45, 52, 52 (Avg:47)
12 Paul Krause Sam 4 13:38:44 11.7, 11.8, 8.8, 17.1 11.73 36, 40, 44, 46, 47 (Avg:44)
85 Dennis Smith Torremolinos 4 13:38:44 10.9, 14.0, 8.3, 17.1 11.73 39, 38, 45, 46, 48 (Avg:44)
70 David Nancarrow Mackellar 6 14:18:51 13.4, 11.7, 8.6, 12.2 11.18 38, 53, 50, 50, 48 (Avg:50)
81 Gordon Flaherty Sharahd Homer 7 14:33:02 11.0, 11.2, 9.1, 13.3 11.00 40, 43, 50, 49, 48 (Avg:47)
84 David Butcher Domil 8 14:44:55 11.5, 13.1, 7.3, 14.2 10.85 40, 48, 56, 50, 53 (Avg:51)
33 James Beale Killinchy Meranta 9 15:14:55 11.7, 10.4, 8.4, 12.1 10.49 30, 45, 48, 44, 43 (Avg:45)
98 Michael Heffernan Lionel 10 15:39:37 12.6, 11.8, 6.7, 12.3 10.22 48, 48, 54, 50, 53 (Avg:51)
44 Denise Trollope Churinga Babooshka 11 15:53:10 12.2, 12.1, 6.9, 11.1 10.07 40, 40, 54, 60, 49 (Avg:50)
71 Terry May Heaths Faisal 12 16:07:39 11.0, 10.8, 7.6, 11.2 9.92 38, 42, 44, 55, 53 (Avg:48)
88 Allan Renner Edenfels Pepperina 13 16:17:39 11.3, 10.8, 7.2, 11.2 9.82 30, 41, 44, 41, 46 (Avg:43)
99 Graham Dugmore Magic Moffitt 14 16:43:13 11.4, 11.4, 6.7, 10.5 9.57 46, 52, 52, 56, 50 (Avg:52)
7 Mike Oloughlin Sharahd Abigail 15 17:57:13 11.3, 9.0, 6.5, 10.2 8.91 40, 43, 43, 49, 48 (Avg:45)
62 Norm Whitelaw Dale 16 19:48:26 10.6, 9.9, 5.7, 7.8 8.08 24, 42, 49, 52, 44 (Avg:46)
11A Graham Hill Ezara Nasrah Lame L3 0:00:00 11.1, 8.7, 5.5 - 36, 43, 54, 59 (Avg:52)
212 William Hill Dusk Lame L3 0:00:00 11.1, 12.0, 7.9 - 35, 39, 46, 48 (Avg:44)
231 Larry Wylie Billabong Bint Kathryn Lame L3 0:00:00 10.8, 8.8, 5.3 - 33, 46, 48, 46 (Avg:46)
8A Kevin Geiger Calico Widthdrawn L2 0:00:00 - - 44, 51, 57 (Avg:54)
214 Brad Innes Sharahd Mango Widthdrawn L2 0:00:00 - - 44, 44, 52 (Avg:48)
228 Karen Storey Brumdagrey Laurie Widthdrawn L2 0:00:00 - - 30, 52, 60 (Avg:56)
229 Rex Telford Andy T Metabolics L2 0:00:00 12.7, 10.3 - 36, 44, 45 (Avg:44)
4A Brian Clarke Stornaway Stardi Heart Rate L1 0:00:00 8.5 - 38, 60 (Avg:60)
5A Ted Cowley Finland Park Elessar Lame L1 0:00:00 8.7 - 37, 43 (Avg:43)
9A Paul Grieves Desert Ash Lame L1 0:00:00 10.2 - 40, 44 (Avg:44)
218 John Mcginn Bb- Lame L1 0:00:00 9.7 - 42, 40 (Avg:40)
222 Chris Pollitt The Profit Heart Rate L1 0:00:00 10.0 - 36, 62 (Avg:62)
227 Noel Stoker Shilo Widthdrawn L1 0:00:00 - - 39, 51 (Avg:51)
113 Mike Sekulich Sharahd Abdul Widthdrawn P/R 0:00:00 - - 37
Middleweight
82 Tom Thomsen Prince Aussie 1 10:44:32 14.6, 14.7, 12.5, 18.9 14.89 35, 49, 47, 55, 59 (Avg:52)
77 Jim Farr Sharahd Cassandra 2 (BC) 10:47:56 15.2, 14.5, 11.3, 21.0 14.82 48, 48, 43, 48, 48 (Avg:46)
87 Scott Hill Craig Darroch Rhaedar 3 11:13:26 14.6, 14.3, 11.7, 17.3 14.26 38, 44, 50, 55, 59 (Avg:52)
10 Lorraine Muller Kelkette Park Nazareth 3 11:13:26 15.5, 15.5, 10.8, 16.6 14.26 40, 45, 48, 56, 46 (Avg:48)
4 Wally Webb Telltale 5 11:29:41 15.6, 15.3, 10.0, 16.8 13.92 38, 44, 42, 48, 49 (Avg:45)
2 Sharie Slattery Chip Chase Ramadan 6 11:40:59 15.6, 14.6, 10.3, 15.8 13.70 36, 44, 44, 46, 50 (Avg:46)
59 Pauline Fletcher (Heffernan) Ned 7 12:07:38 13.8, 13.1, 10.9, 15.8 13.19 35, 37, 40, 49, 47 (Avg:43)
49 Terry Wood Deepbank Brigadoon 8 12:08:22 11.8, 14.7, 11.6, 15.3 13.18 44, 48, 50, 53, 50 (Avg:50)
3 Analese Trollope Santarabia Perkal 9 12:26:32 12.1, 12.2, 10.9, 17.8 12.86 36, 46, 39, 52, 46 (Avg:45)
52 Robin Cameron Richard 10 12:47:45 11.9, 12.9, 9.6, 17.8 12.50 34, 39, 42, 48, 47 (Avg:44)
54 Allan Caslick Jasper 10 12:47:45 11.9, 12.9, 9.6, 17.8 12.50 34, 40, 42, 46, 51 (Avg:44)
11 Norm Cunningham Sharahd Gericho 12 12:54:06 14.5, 13.0, 9.7, 13.4 12.40 36, 48, 43, 42, 45 (Avg:44)
48 Andrew Gleeson Tristram Selqua 13 13:08:28 12.7, 13.5, 8.6, 16.6 12.18 36, 41, 44, 47, 48 (Avg:45)
43 Jan Neal Flamizak 14 13:27:18 12.2, 12.3, 8.8, 16.4 11.89 36, 42, 52, 51, 56 (Avg:50)
69 Peter Miller Koob 15 13:38:16 12.7, 12.9, 8.3, 15.4 11.73 32, 44, 44, 43, 41 (Avg:43)
90 Bruce Overton Charabal Explorer 16 13:49:06 13.7, 15.1, 10.5, 8.8 11.58 40, 46, 46, 52, 51 (Avg:48)
50 Alan Lindsay Kintamani Fern 17 14:07:29 11.2, 11.7, 9.2, 14.0 11.33 29, 35, 38, 40, 39 (Avg:38)
51 Helen Lindsay Merrinvale Voss 17 14:07:29 11.6, 13.4, 9.1, 12.0 11.33 33, 41, 45, 44, 49 (Avg:44)
36 Bill Eyles Roper Creek Dan 19 14:19:07 12.7, 12.8, 8.5, 11.8 11.17 44, 42, 49, 56, 51 (Avg:49)
35 Carmen Batterham General Lee 20 14:19:45 11.1, 11.5, 8.3, 15.9 11.17 42, 49, 48, 49, 52 (Avg:49)
61 Jo-Anne Francis Gimli 21 14:20:07 11.4, 11.4, 8.5, 14.9 11.16 32, 37, 36, 37, 38 (Avg:37)
79 June Petersen Abbeline Lady Rebecca 22 14:23:01 13.7, 13.7, 7.4, 12.4 11.12 35, 40, 38, 45, 43 (Avg:41)
6 Jack Boswell Rajah 23 14:26:15 11.2, 11.7, 8.3, 15.0 11.08 30, 39, 52, 48, 48 (Avg:46)
97 Len Law Deltry's Boy 24 14:28:41 12.6, 14.8, 7.9, 11.1 11.05 36, 46, 48, 54, 52 (Avg:50)
100 Claude Filleul Sharahd Kimone 25 14:39:45 11.8, 12.2, 8.4, 12.1 10.91 40, 46, 49, 54, 48 (Avg:49)
57 Ron Males Ralvon Ingrid 26 14:40:33 11.5, 11.1, 8.3, 13.9 10.90 35, 40, 46, 55, 48 (Avg:47)
80 Rob Scott Flyaway 27 14:40:51 11.1, 11.5, 8.2, 14.4 10.90 28, 44, 50, 50, 48 (Avg:48)
21 Robert Corbett Coolmunda Trazarra 28 14:44:38 11.5, 12.3, 7.8, 13.5 10.85 32, 43, 48, 52, 55 (Avg:49)
60 Sue Parsons Onegin 29 15:05:47 10.9, 11.5, 7.8, 13.9 10.60 36, 42, 44, 47, 48 (Avg:45)
5 Sophie Winstanley Karumba Caravelle 29 15:05:47 10.9, 11.5, 7.8, 13.9 10.60 28, 42, 43, 44, 44 (Avg:43)
83 Roy Barsby Lawes Janna 31 15:23:40 12.1, 13.7, 9.7, 7.8 10.39 36, 44, 46, 59, 55 (Avg:51)
8 Fred Malmborg Sundown 32 15:35:29 11.1, 11.1, 7.4, 13.0 10.26 34, 45, 44, 47, 49 (Avg:46)
32 Don Gibbs Sharahd Nelson 33 15:39:03 10.8, 12.1, 7.7, 11.2 10.22 36, 38, 45, 47, 38 (Avg:42)
42 Claire Brosnan Wynola Snowflake 34 16:07:39 10.9, 10.9, 7.6, 11.2 9.92 36, 40, 45, 53, 55 (Avg:48)
78 Gem Butler Lawes Uriah 34 16:07:39 10.9, 11.5, 7.3, 11.2 9.92 33, 38, 46, 51, 55 (Avg:47)
46 Lyn Bailey Faraway Reckless 36 16:15:41 10.7, 10.6, 7.3, 11.8 9.84 34, 41, 48, 46, 47 (Avg:45)
1 Christopher Bailey Lyndrian Arion 36 16:15:41 10.7, 10.6, 7.3, 11.8 9.84 34, 47, 51, 51, 50 (Avg:49)
91 Paul Brown Talisman Gamin 38 16:33:06 10.0, 10.4, 7.6, 11.3 9.67 33, 44, 45, 47, 40 (Avg:44)
31 David Standfield Tommy 38 16:33:06 9.8, 10.5, 7.7, 11.3 9.67 38, 45, 48, 54, 46 (Avg:48)
9 James Thiveos Koorana Rezon 40 16:51:02 10.8, 10.9, 6.7, 11.1 9.50 28, 43, 48, 40, 44 (Avg:43)
63 Meg Wade Blairgowrie Blacklight 41 16:51:15 11.8, 11.1, 6.3, 11.1 9.49 40, 48, 50, 46, 48 (Avg:48)
66 Lucy Joynson Matta Mia Firebird 42 17:03:56 12.3, 11.1, 6.3, 10.2 9.38 34, 39, 45, 46, 45 (Avg:43)
67 Jack Joynson Gypsy Rose 42 17:03:56 12.3, 11.1, 6.3, 10.2 9.38 40, 43, 49, 56, 46 (Avg:48)
55 Jan Collins Jamal Desert Storm 44 17:17:03 11.5, 10.3, 6.5, 10.3 9.26 36, 37, 56, 53, 46 (Avg:48)
15 Peter Johnson Bodie 45 17:51:43 11.3, 10.9, 6.1, 9.5 8.96 34, 40, 49, 52, 49 (Avg:47)
24 Kay Waldau Ringo 45 17:51:43 11.3, 10.9, 6.1, 9.5 8.96 34, 39, 49, 48, 40 (Avg:44)
45 Paul Flack Marangani Kemar 47 17:53:54 11.3, 11.6, 6.5, 8.2 8.94 28, 38, 42, 48, 37 (Avg:41)
34 Joanne Knight Sharahd Zora 48 17:57:13 11.8, 8.7, 6.5, 10.2 8.91 34, 48, 42, 43, 40 (Avg:43)
23 John Jackson Waterford Irette 49 18:02:49 11.0, 10.2, 6.1, 10.0 8.87 49, 48, 42, 45, 46 (Avg:45)
75 Bruce Seaward Arabian Lodge Sadiq 50 18:04:25 11.1, 9.5, 6.2, 10.2 8.85 30, 41, 50, 46, 43 (Avg:45)
72 Robert Bidgood Vanity Sun 51 18:07:23 10.3, 10.5, 5.9, 10.5 8.83 39, 46, 50, 44, 44 (Avg:46)
95 Maurice Crombie Blue 52 18:09:07 10.3, 9.6, 6.8, 9.2 8.81 34, 37, 37, 39, 42 (Avg:38)
65 Kevin Cook White Flash 53 18:12:49 11.5, 9.3, 6.1, 10.0 8.78 37, 47, 48, 51, 46 (Avg:48)
68 Dean Stephen Rokeby Hercules 54 18:14:25 10.1, 9.7, 6.8, 9.0 8.77 42, 44, 54, 52, 54 (Avg:51)
89 Olga Bartlett Just Lucky 55 18:38:17 9.7, 10.0, 6.3, 9.4 8.58 40, 44, 44, 47, 46 (Avg:45)
250 Don Cornish Gundy Lame L4 0:00:00 10.2, 10.3, 6.2, 10.3 - 30, 48, 50, 51, 42 (Avg:47)
294 Tracee Males The Horse Lame L4 0:00:00 11.5, 11.1, 8.3, 13.9 - 37, 49, 50, 52, 54 (Avg:51)
233 Simon Bain Coonawarra Lame L3 0:00:00 13.8, 14.9, 10.8 - 38, 46, 48, 50 (Avg:48)
248 Robyn Coombes Nyora Cleo Lame L3 0:00:00 12.1, 10.6, 6.6 - 32, 39, 44, 41 (Avg:41)
257 Sandra Eagle Barcoo Widthdrawn L3 0:00:00 - - 40, 41, 49, 54 (Avg:48)
261 Sandra Feltham Second Hand Rose Lame L3 0:00:00 13.8, 10.9, 6.9 - 34, 40, 38, 38 (Avg:38)
262 Lee Field Sinclairs Twilight Widthdrawn L3 0:00:00 - - 30, 38, 40, 42 (Avg:40)
265 Chris Forrester Merton Limelight Lame L3 0:00:00 11.5, 13.7, 8.1 - 42, 43, 44, 49 (Avg:45)
277 Lorraine Howarth Chip Chase Abu Bakr Lame L3 0:00:00 13.1, 14.6, 10.3 - 30, 42, 38, 49 (Avg:43)
280 Elizabeth Jessop D-J Simone Widthdrawn L3 0:00:00 - - 35, 38, 51, 56 (Avg:48)
286 Paul Krahnen Thunder Heart Rate L3 0:00:00 14.1, 14.6, 10.4 - 33, 45, 53, 65 (Avg:54)
287 Bill Larkins Rebel Heart Rate L3 0:00:00 8.7, 8.8, 6.0 - 45, 53, 55, 67 (Avg:58)
132 Louise Lewis Faraway Dugari Lame L3 0:00:00 14.5, 13.0, 9.7 - 31, 50, 47, 48 (Avg:48)
267 Heather Lindsay Lindsay Park Sara Ann Lame L3 0:00:00 9.9, 11.2, 6.9 - 35, 47, 47, 56 (Avg:50)
128 Barbara Macdonald Kelly Widthdrawn L3 0:00:00 - - 38, 52, 47, 59 (Avg:52)
2102 Jill Nicole Laurjil Hagari Lame L3 0:00:00 12.3, 13.1, 7.2 - 38, 45, 47, 58 (Avg:50)
2120 Allan Standfield Geronimo Widthdrawn L3 0:00:00 - - 33, 40, 49, 55 (Avg:48)
122 Peter Stewart Mister Pops Metabolics L3 0:00:00 8.6, 8.9, 6.0 - 38, 49, 55, 52 (Avg:52)
2118 Jackie Swan Sharahd Malika Lame L3 0:00:00 11.0, 11.9, 7.7 - 34, 49, 51, 59 (Avg:53)
2119 Steve Swan Sharahd Nerita Widthdrawn L3 0:00:00 - - 48, 52, 47, 51 (Avg:50)
125 John Thielen Twin Tree Star Lame L3 0:00:00 11.1, 10.0, 2.3 - 35, 41, 48, 51 (Avg:46)
241 Kevin Bohm Silver Image Lame L2 0:00:00 14.2, 14.9 - 42, 40, 45 (Avg:42)
276 Vivian Hollins Fresco Lame L2 0:00:00 11.0, 10.3 - 30, 48, 45 (Avg:46)
278 Fran Howitt Montevideo Cracker Widthdrawn L2 0:00:00 - - 30, 42, 56 (Avg:49)
291 Scott Mckillop Little Boy Widthdrawn L2 0:00:00 - - 36, 44, 49 (Avg:46)
298 Gary Morcom Crow Lame L2 0:00:00 9.7, 9.8 - 34, 48, 60 (Avg:54)
2109 Anna Roberts Karumba Inca Lame L2 0:00:00 10.9, 11.5 - 31, 44, 40 (Avg:42)
224 Sonia Sheen Dallas Widthdrawn L2 0:00:00 - - 34, 47, 47 (Avg:47)
2115 Sue Smith Koran El Fateel Widthdrawn L2 0:00:00 - - 40, 38, 45 (Avg:41)
133 Steven Vergis Digger Lame L2 0:00:00 14.5, 13.0 - 28, 47, 50 (Avg:48)
232 Peter Anderson Billy Heart Rate L1 0:00:00 10.9 - 30, 60 (Avg:60)
240 Damien Bonham Bow Lame L1 0:00:00 9.4 - 36, 42 (Avg:42)
271 Bernie Harris Palmdale Nazareth Lame L1 0:00:00 11.0 - 38, 50 (Avg:50)
2103 Jenny Oliver Glenallan Nomad Lame L1 0:00:00 15.5 - 36, 41 (Avg:41)
2110 Bob Sample Sharahd Mara Heart Rate L1 0:00:00 11.8 - 38, 60 (Avg:60)
124 Alf Strano Donnie Lame L1 0:00:00 11.1 - 32, 52 (Avg:52)
138 Terry Wignell Shogun Lame L1 0:00:00 12.7 - 32, 50 (Avg:50)
139 Erica Williams Ross Lame L1 0:00:00 11.1 - 30, 37 (Avg:37)
177 Robin Young Banjo Lame L1 0:00:00 6.7 - 33, 43 (Avg:43)
272 Howard Harris Chip Chase Windchime Lame P/R 0:00:00 - - 36
284 Lollie Knight Laurjil Sharina Widthdrawn P/R 0:00:00 - - 40
2100 Warwick Murnane Dandy Lame P/R 0:00:00 - - 36
Lightweight
39 Carlene Mercer Blue 1 10:48:56 15.6, 15.9, 10.9, 19.0 14.79 35, 39, 53, 58, 60 (Avg:52)
76 Bronwyn James Sharahd Brown Mystery 2 11:17:06 15.2, 14.5, 11.3, 16.7 14.18 40, 42, 47, 48, 39 (Avg:44)
96 Anne Jones Marengo Buznin 3 11:56:32 12.7, 13.7, 11.5, 16.4 13.40 34, 38, 42, 41, 46 (Avg:41)
19 Darren Helm Strops 4 (BC) 12:57:18 11.9, 12.6, 9.3, 18.5 12.35 40, 42, 45, 47, 47 (Avg:45)
64 Rachel Bohm Silver Ibn Zarak 5 13:10:21 14.2, 14.5, 8.4, 13.7 12.15 36, 46, 42, 47, 46 (Avg:45)
18 Glenys Fielding Shemali Nhazala 6 14:20:01 12.3, 13.1, 7.2, 15.4 11.16 42, 43, 51, 52, 58 (Avg:51)
92 Danielle Kennedy Abbeline Chrystel 7 14:23:01 13.7, 13.3, 7.6, 12.4 11.12 34, 43, 41, 47, 40 (Avg:42)
13 Kym Thumpkin Genesis 8 14:33:01 12.1, 13.0, 8.4, 11.5 11.00 43, 48, 50, 58, 56 (Avg:53)
38 Sharon Seaman Sharahd Delta 9 14:39:45 11.8, 12.2, 8.4, 12.1 10.91 30, 41, 46, 53, 50 (Avg:47)
40 Helena Wilcocks Clancy Of The Overflow 10 14:43:21 11.3, 11.9, 8.3, 12.9 10.87 40, 41, 48, 45, 43 (Avg:44)
94 Sharon Walsh Shayperil Jahana 11 14:44:55 11.7, 11.5, 7.8, 14.2 10.85 36, 49, 54, 50, 42 (Avg:48)
74 Vanessa Gaudard Sharahd Quilty 12 14:49:45 11.8, 11.7, 8.4, 12.1 10.79 36, 39, 42, 52, 45 (Avg:44)
93 Jenny Noffke Just Fancy 13 14:53:21 12.8, 11.7, 7.9, 11.9 10.75 36, 44, 52, 54, 51 (Avg:50)
86 Michael Gabriel Sharahd Caddie 14 15:39:03 12.6, 12.3, 7.0, 11.2 10.22 37, 45, 52, 42, 45 (Avg:46)
26 Jody Mcguiness Jade 15 16:23:06 10.2, 10.5, 7.6, 11.4 9.77 36, 55, 48, 56, 46 (Avg:51)
41 Leanne Connolly Monie 16 16:33:06 10.0, 10.4, 7.6, 11.3 9.67 40, 43, 47, 54, 43 (Avg:46)
27 Helen Cook Hale 17 18:13:54 11.5, 8.9, 6.3, 10.0 8.78 36, 45, 40, 46, 44 (Avg:43)
25 Juanita Lamb Alvin Purple 18 18:28:17 10.9, 9.7, 6.1, 9.4 8.66 45, 52, 47, 51, 50 (Avg:50)
30 Phillipa Bolt Sheraz 19 18:38:12 11.1, 10.1, 6.3, 8.3 8.59 32, 42, 53, 58, 46 (Avg:49)
28 Graham Jarrettt Danny 20 19:20:00 9.6, 9.4, 5.9, 9.4 8.28 36, 43, 51, 52, 53 (Avg:49)
37 Ray Woit Princess 20 19:20:00 9.6, 9.4, 5.9, 9.4 8.28 40, 49, 49, 50, 46 (Avg:48)
14 Kylie Tanner Chief 22 19:48:26 10.6, 9.9, 5.7, 7.8 8.08 36, 41, 43, 48, 40 (Avg:43)
160 Terry Lynam Rusty Wind Lame L4 0:00:00 11.5, 8.9, 6.3, 10.0 - 38, 40, 44, 45, 40 (Avg:42)
142 Janet Anderson Shayperil Glordan Heart Rate L3 0:00:00 8.0, 8.5, 6.7 - 38, 54, 51, 63 (Avg:56)
146 Sharon Byers Commanche Widthdrawn L3 0:00:00 - - 34, 38, 46, 52 (Avg:45)
153 Oenone Hibberd Bashah Lame L3 0:00:00 13.1, 13.5, 8.9 - 32, 43, 48, 45 (Avg:45)
163 Stephanie Malmborg Roxborough Lauren Lame L3 0:00:00 11.1, 11.1, 7.4 - 36, 45, 45, 46 (Avg:45)
168 Marney Pratt El-shalao Saludo Metabolics L3 0:00:00 12.6, 12.3, 7.0 - 43, 50, 56, 60 (Avg:55)
169 Debra Richards Charmasty Lame L3 0:00:00 12.1, 13.5, 9.1 - 48, 39, 45, 50 (Avg:44)
141 Wanda Adams Lacey Lame L1 0:00:00 10.8 - 37, 40 (Avg:40)
157 Annette Law Rocky Lame L1 0:00:00 12.6 - 29, 40 (Avg:40)
165 Elsie Nancarrow Sharahd Queenah Heart Rate L1 0:00:00 12.0 - 32, 63 (Avg:63)
Junior
53 Chris Malone Liana 1 (BC) 10:07:33 14.9, 15.2, 13.4, 21.3 15.80 34, 47, 42, 44, 43 (Avg:44)
56 David Bohm Kelkette Park Lyric 2 10:34:26 15.8, 16.2, 12.2, 17.2 15.13 33, 38, 40, 52, 48 (Avg:44)
73 Brook Sample Sharahd Melodie 3 10:41:49 14.6, 14.3, 11.7, 22.4 14.96 38, 40, 43, 54, 53 (Avg:47)
17 Katrina Kliese Tuff Stuff 4 11:10:44 14.1, 14.7, 11.3, 18.9 14.31 48, 38, 44, 51, 48 (Avg:45)
22 Ken Falls Jodie 5 14:26:15 9.9, 11.7, 9.0, 15.3 11.08 32, 38, 45, 49, 47 (Avg:44)
20 James Flaherty Eumerella Glen Eclipse 6 14:33:02 11.0, 11.2, 9.1, 13.3 11.00 33, 44, 44, 52, 57 (Avg:49)
29 Adam Beale Westwood Cristrin 7 15:14:55 12.6, 9.8, 8.4, 12.1 10.49 36, 48, 47, 52, 57 (Avg:51)
186 Matthew Heffernan Dieselene Lame L4 0:00:00 13.8, 13.1, 10.9, 15.8 - 56, 41, 47, 51, 53 (Avg:48)
185 William Geiger Vision Lame L3 0:00:00 8.6, 8.8, 6.0 - 38, 46, 47, 51 (Avg:48)
191 Stuart Priest Pharoah Lame L3 0:00:00 12.7, 13.5, 9.0 - 36, 46, 47, 48 (Avg:47)
193 Stephen Wruck Kambala Kaybra Lame L3 0:00:00 11.1, 11.2, 7.5 - 32, 40, 40, 41 (Avg:40)
182 Paul Butler Anna's Shaahn Lame L2 0:00:00 9.7, 10.0 - 40, 39, 45 (Avg:42)
187 Natalie Innes Wagga Kinsingh Lame L2 0:00:00 11.2, 11.7 - 41, 48, 46 (Avg:47)
181 Sonia Bonham Santarabia Mazra Heart Rate L1 0:00:00 9.4 - 40, 61 (Avg:61)
190 Ashley Priest Balcaskie Cooee Heart Rate L1 0:00:00 10.0 - 32, 70 (Avg:70)